createdAt,value
2022-08-23T00:01:43.839Z,21.29
2022-08-23T00:04:20.078Z,21.17
2022-08-23T00:06:49.919Z,21.11
2022-08-23T00:09:20.189Z,21.05
2022-08-23T00:11:52.918Z,21.06
2022-08-23T00:14:30.160Z,21.07
2022-08-23T00:17:01.010Z,21.10
2022-08-23T00:19:28.809Z,21.11
2022-08-23T00:21:56.863Z,21.11
2022-08-23T00:24:26.064Z,21.12
2022-08-23T00:27:10.361Z,21.08
2022-08-23T00:29:44.549Z,21.06
2022-08-23T00:32:18.269Z,21.10
2022-08-23T00:34:45.799Z,21.12
2022-08-23T00:37:14.573Z,21.13
2022-08-23T00:39:42.669Z,21.11
2022-08-23T00:42:52.064Z,21.10
2022-08-23T00:45:46.514Z,21.12
2022-08-23T00:48:14.557Z,21.14
2022-08-23T00:51:19.085Z,21.18
2022-08-23T00:53:55.975Z,21.15
2022-08-23T00:56:27.873Z,21.13
2022-08-23T00:58:58.448Z,21.11
2022-08-23T01:01:26.955Z,21.10
2022-08-23T01:04:04.358Z,21.08
2022-08-23T01:06:44.134Z,21.01
2022-08-23T01:09:21.229Z,20.94
2022-08-23T01:11:59.380Z,20.86
2022-08-23T01:14:38.590Z,20.73
2022-08-23T01:17:21.346Z,20.66
2022-08-23T01:20:07.326Z,20.63
2022-08-23T01:22:58.991Z,20.62
2022-08-23T01:25:30.492Z,20.60
2022-08-23T01:27:59.426Z,20.61
2022-08-23T01:30:32.666Z,20.63
2022-08-23T01:33:06.667Z,20.65
2022-08-23T01:35:53.504Z,20.68
2022-08-23T01:38:22.567Z,20.65
2022-08-23T01:40:51.488Z,20.61
2022-08-23T01:43:21.759Z,20.55
2022-08-23T01:45:53.474Z,20.52
2022-08-23T01:48:24.347Z,20.52
2022-08-23T01:50:52.182Z,20.50
2022-08-23T01:53:20.152Z,20.48
2022-08-23T01:55:50.582Z,20.47
2022-08-23T01:58:21.460Z,20.47
2022-08-23T02:00:49.397Z,20.45
2022-08-23T02:03:17.161Z,20.47
2022-08-23T02:05:45.836Z,20.49
2022-08-23T02:08:32.833Z,20.51
2022-08-23T02:11:11.884Z,20.57
2022-08-23T02:13:41.587Z,20.57
2022-08-23T02:16:14.882Z,20.63
2022-08-23T02:18:43.435Z,20.67
2022-08-23T02:21:11.624Z,20.70
2022-08-23T02:23:39.812Z,20.71
2022-08-23T02:26:07.353Z,20.68
2022-08-23T02:28:34.948Z,20.61
2022-08-23T02:31:02.950Z,20.60
2022-08-23T02:33:31.567Z,20.55
2022-08-23T02:35:59.422Z,20.51
2022-08-23T02:38:27.213Z,20.47
2022-08-23T02:41:00.663Z,20.42
2022-08-23T02:43:30.306Z,20.37
2022-08-23T02:45:57.807Z,20.35
2022-08-23T02:48:25.867Z,20.38
2022-08-23T02:51:06.322Z,20.39
2022-08-23T02:53:34.944Z,20.43
2022-08-23T02:56:07.073Z,20.45
2022-08-23T02:58:54.450Z,20.46
2022-08-23T03:01:32.469Z,20.42
2022-08-23T03:04:11.178Z,20.38
2022-08-23T03:06:39.831Z,20.34
2022-08-23T03:09:08.993Z,20.31
2022-08-23T03:11:36.626Z,20.30
2022-08-23T03:14:04.926Z,20.24
2022-08-23T03:16:33.058Z,20.17
2022-08-23T03:19:02.352Z,20.08
2022-08-23T03:21:31.265Z,20.09
2022-08-23T03:24:00.822Z,20.13
2022-08-23T03:26:31.414Z,20.23
2022-08-23T03:28:59.392Z,20.28
2022-08-23T03:31:31.367Z,20.34
2022-08-23T03:34:07.899Z,20.36
2022-08-23T03:36:35.879Z,20.36
2022-08-23T03:39:06.149Z,20.37
2022-08-23T03:41:34.181Z,20.41
2022-08-23T03:44:01.960Z,20.47
2022-08-23T03:46:34.205Z,20.51
2022-08-23T03:49:04.301Z,20.58
2022-08-23T03:52:00.357Z,20.63
2022-08-23T03:54:32.530Z,20.67
2022-08-23T03:57:05.050Z,20.70
2022-08-23T03:59:38.187Z,20.67
2022-08-23T04:02:09.695Z,20.64
2022-08-23T04:04:37.923Z,20.62
2022-08-23T04:07:28.713Z,20.62
2022-08-23T04:09:58.907Z,20.62
2022-08-23T04:12:31.754Z,20.60
2022-08-23T04:14:59.913Z,20.59
2022-08-23T04:17:32.150Z,20.56
2022-08-23T04:20:01.267Z,20.53
2022-08-23T04:22:29.757Z,20.55
2022-08-23T04:24:57.713Z,20.59
2022-08-23T04:27:25.706Z,20.64
2022-08-23T04:29:53.930Z,20.68
2022-08-23T04:32:26.611Z,20.70
2022-08-23T04:34:58.509Z,20.73
2022-08-23T04:37:26.199Z,20.72
2022-08-23T04:40:12.452Z,20.73
2022-08-23T04:42:43.412Z,20.68
2022-08-23T04:45:12.435Z,20.66
2022-08-23T04:47:44.903Z,20.68
2022-08-23T04:50:12.690Z,20.68
2022-08-23T04:52:59.294Z,20.63
2022-08-23T04:55:29.135Z,20.58
2022-08-23T04:58:07.554Z,20.59
2022-08-23T05:00:44.636Z,20.60
2022-08-23T05:03:14.348Z,20.64
2022-08-23T05:05:42.594Z,20.68
2022-08-23T05:08:10.826Z,20.71
2022-08-23T05:10:38.882Z,20.67
2022-08-23T05:13:06.402Z,20.66
2022-08-23T05:15:33.825Z,20.66
2022-08-23T05:18:06.586Z,20.65
2022-08-23T05:20:36.734Z,20.67
2022-08-23T05:23:04.310Z,20.70
2022-08-23T05:25:53.153Z,20.71
2022-08-23T05:28:49.606Z,20.70
2022-08-23T05:31:24.196Z,20.76
2022-08-23T05:33:59.097Z,20.76
2022-08-23T05:36:55.361Z,20.76
2022-08-23T05:39:36.222Z,20.72
2022-08-23T05:42:12.776Z,20.69
2022-08-23T05:44:41.796Z,20.66
2022-08-23T05:47:15.847Z,20.65
2022-08-23T05:50:16.031Z,20.67
2022-08-23T05:52:45.867Z,20.70
2022-08-23T05:55:16.928Z,20.69
2022-08-23T05:57:55.311Z,20.63
2022-08-23T06:00:23.249Z,20.57
2022-08-23T06:03:05.187Z,20.54
2022-08-23T06:05:32.730Z,20.58
2022-08-23T06:08:01.723Z,20.63
2022-08-23T06:10:29.729Z,20.66
2022-08-23T06:13:04.487Z,20.71
2022-08-23T06:15:32.741Z,20.76
2022-08-23T06:18:00.382Z,20.82
2022-08-23T06:20:28.216Z,20.84
2022-08-23T06:23:01.945Z,20.87
2022-08-23T06:25:29.993Z,20.90
2022-08-23T06:28:08.125Z,20.93
2022-08-23T06:30:40.070Z,20.96
2022-08-23T06:33:21.730Z,20.93
2022-08-23T06:36:18.560Z,20.95
2022-08-23T06:39:28.743Z,20.93
2022-08-23T06:42:37.481Z,20.92
2022-08-23T06:45:06.544Z,20.89
2022-08-23T06:47:43.605Z,20.88
2022-08-23T06:50:11.751Z,20.86
2022-08-23T06:52:58.309Z,20.86
2022-08-23T06:55:44.715Z,20.87
2022-08-23T06:58:22.399Z,20.87
2022-08-23T07:01:50.176Z,20.85
2022-08-23T07:04:31.833Z,20.82
2022-08-23T07:10:08.044Z,20.80
2022-08-23T07:12:42.639Z,20.83
2022-08-23T07:15:12.689Z,20.86
2022-08-23T07:17:43.628Z,20.86
2022-08-23T07:20:11.161Z,20.82
2022-08-23T07:22:41.333Z,20.79
2022-08-23T07:25:10.822Z,20.75
2022-08-23T07:27:40.312Z,20.75
2022-08-23T07:30:09.901Z,20.77
2022-08-23T07:32:40.676Z,20.77
2022-08-23T07:35:32.439Z,20.74
2022-08-23T07:38:02.899Z,20.74
2022-08-23T07:40:38.771Z,20.68
2022-08-23T07:43:09.025Z,20.66
2022-08-23T07:45:40.629Z,20.67
2022-08-23T07:48:12.189Z,20.66
2022-08-23T07:51:07.347Z,20.65
2022-08-23T07:53:37.736Z,20.62
2022-08-23T07:56:11.416Z,20.61
2022-08-23T07:59:03.822Z,20.61
2022-08-23T08:01:38.386Z,20.61
2022-08-23T08:04:08.257Z,20.62
2022-08-23T08:07:04.935Z,20.63
2022-08-23T08:09:40.183Z,20.60
2022-08-23T08:12:08.970Z,20.57
2022-08-23T08:14:38.123Z,20.46
2022-08-23T08:17:06.948Z,20.43
2022-08-23T08:19:57.326Z,20.42
2022-08-23T08:22:47.574Z,20.42
2022-08-23T08:25:35.051Z,20.43
2022-08-23T08:28:06.283Z,20.42
2022-08-23T08:30:34.085Z,20.45
2022-08-23T08:33:03.975Z,20.45
2022-08-23T08:35:33.485Z,20.48
2022-08-23T08:38:03.762Z,20.52
2022-08-23T08:40:37.578Z,20.61
2022-08-23T08:43:34.283Z,20.68
2022-08-23T08:46:27.996Z,20.72
2022-08-23T08:49:01.528Z,20.75
2022-08-23T08:52:10.785Z,20.76
2022-08-23T08:54:44.906Z,20.73
2022-08-23T08:57:25.488Z,20.73
2022-08-23T09:00:02.813Z,20.72
2022-08-23T09:02:35.294Z,20.71
2022-08-23T09:05:27.039Z,20.72
2022-08-23T09:08:19.378Z,20.71
2022-08-23T09:11:22.669Z,20.69
2022-08-23T09:13:53.744Z,20.65
2022-08-23T09:16:31.880Z,20.66
2022-08-23T09:19:02.664Z,20.70
2022-08-23T09:21:50.750Z,20.75
2022-08-23T09:24:18.623Z,20.80
2022-08-23T09:26:58.867Z,20.88
2022-08-23T09:29:35.451Z,20.93
2022-08-23T09:32:30.973Z,20.92
2022-08-23T09:35:23.051Z,20.86
2022-08-23T09:38:15.387Z,20.80
2022-08-23T09:40:51.217Z,20.75
2022-08-23T09:43:26.211Z,20.79
2022-08-23T09:45:59.561Z,20.86
2022-08-23T09:48:46.870Z,20.96
2022-08-23T09:51:41.584Z,20.99
2022-08-23T09:54:33.952Z,21.01
2022-08-23T09:57:10.325Z,21.09
2022-08-23T09:59:51.725Z,21.12
2022-08-23T10:02:31.628Z,21.14
2022-08-23T10:05:37.837Z,21.18
2022-08-23T10:08:10.653Z,21.21
2022-08-23T10:10:51.824Z,21.26
2022-08-23T10:13:27.891Z,21.26
2022-08-23T10:16:04.747Z,21.33
2022-08-23T10:19:03.368Z,21.40
2022-08-23T10:21:51.458Z,21.45
2022-08-23T10:24:46.083Z,21.46
2022-08-23T10:28:03.807Z,21.43
2022-08-23T10:30:54.636Z,21.46
2022-08-23T10:33:55.167Z,21.47
2022-08-23T10:36:56.770Z,21.48
2022-08-23T10:39:30.270Z,21.50
2022-08-23T10:42:17.011Z,21.51
2022-08-23T10:45:15.235Z,21.52
2022-08-23T10:47:54.321Z,21.50
2022-08-23T10:50:22.932Z,21.52
2022-08-23T10:53:13.760Z,21.52
2022-08-23T10:56:02.917Z,21.55
2022-08-23T10:59:08.341Z,21.59
2022-08-23T11:01:46.622Z,21.59
2022-08-23T11:04:26.417Z,21.61
2022-08-23T11:07:43.133Z,21.63
2022-08-23T11:10:39.331Z,21.64
2022-08-23T11:13:15.120Z,21.67
2022-08-23T11:15:58.676Z,21.70
2022-08-23T11:18:47.678Z,21.69
2022-08-23T11:21:30.768Z,21.67
2022-08-23T11:24:03.207Z,21.67
2022-08-23T11:26:41.327Z,21.69
2022-08-23T11:29:22.221Z,21.72
2022-08-23T11:32:33.443Z,21.77
2022-08-23T11:35:50.462Z,21.87
2022-08-23T11:38:47.509Z,21.94
2022-08-23T11:41:19.393Z,21.98
2022-08-23T11:43:56.579Z,22.01
2022-08-23T11:46:27.582Z,22.02
2022-08-23T11:49:29.499Z,22.02
2022-08-23T11:52:36.979Z,22.00
2022-08-23T11:55:53.241Z,21.93
2022-08-23T11:58:34.763Z,21.87
2022-08-23T12:01:10.879Z,21.86
2022-08-23T12:03:59.191Z,21.86
2022-08-23T12:06:51.494Z,21.88
2022-08-23T12:09:20.526Z,21.87
2022-08-23T12:11:56.624Z,21.87
2022-08-23T12:14:40.214Z,21.87
2022-08-23T12:17:16.914Z,21.87
2022-08-23T12:20:13.161Z,21.91
2022-08-23T12:23:15.451Z,21.94
2022-08-23T12:25:43.946Z,21.97
2022-08-23T12:28:33.302Z,22.01
2022-08-23T12:31:14.492Z,22.03
2022-08-23T12:34:32.791Z,22.01
2022-08-23T12:37:09.563Z,22.01
2022-08-23T12:39:59.663Z,22.00
2022-08-23T12:42:36.031Z,21.99
2022-08-23T12:45:20.320Z,22.03
2022-08-23T12:48:02.563Z,22.08
2022-08-23T12:51:00.445Z,22.14
2022-08-23T12:53:31.738Z,22.17
2022-08-23T12:56:11.498Z,22.22
2022-08-23T12:58:45.652Z,22.22
2022-08-23T13:01:30.166Z,22.25
2022-08-23T13:04:19.559Z,22.28
2022-08-23T13:06:55.171Z,22.34
2022-08-23T13:09:34.191Z,22.41
2022-08-23T13:12:02.548Z,22.42
2022-08-23T13:14:41.191Z,22.44
2022-08-23T13:17:26.527Z,22.40
2022-08-23T13:20:04.275Z,22.40
2022-08-23T13:22:33.702Z,22.43
2022-08-23T13:25:29.130Z,22.49
2022-08-23T13:28:06.529Z,22.53
2022-08-23T13:30:38.003Z,22.51
2022-08-23T13:33:08.426Z,22.50
2022-08-23T13:35:44.514Z,22.55
2022-08-23T13:38:22.051Z,22.58
2022-08-23T13:41:14.091Z,22.64
2022-08-23T13:43:44.554Z,22.66
2022-08-23T13:46:26.549Z,22.63
2022-08-23T13:49:28.593Z,22.65
2022-08-23T13:52:37.876Z,22.65
2022-08-23T13:54:53.071Z,22.65
2022-08-23T13:57:22.288Z,22.71
2022-08-23T13:59:54.504Z,22.71
2022-08-23T14:02:24.310Z,22.73
2022-08-23T14:04:52.249Z,22.67
2022-08-23T14:07:20.155Z,22.64
2022-08-23T14:09:50.979Z,22.63
2022-08-23T14:12:31.869Z,22.58
2022-08-23T14:15:03.078Z,22.56
2022-08-23T14:17:38.649Z,22.57
2022-08-23T14:22:56.151Z,22.60
2022-08-23T14:25:24.068Z,22.59
2022-08-23T14:27:51.711Z,22.59
2022-08-23T14:30:29.430Z,22.60
2022-08-23T14:32:59.777Z,22.60
2022-08-23T14:35:27.670Z,22.63
2022-08-23T14:38:03.303Z,22.65
2022-08-23T14:40:31.894Z,22.67
2022-08-23T14:42:59.465Z,22.65
2022-08-23T14:45:27.445Z,22.64
2022-08-23T14:47:55.211Z,22.65
2022-08-23T14:50:22.853Z,22.70
2022-08-23T14:52:50.354Z,22.72
2022-08-23T14:55:20.212Z,22.71
2022-08-23T14:57:51.745Z,22.68
2022-08-23T15:00:19.675Z,22.63
2022-08-23T15:02:48.829Z,22.59
2022-08-23T15:05:16.877Z,22.60
2022-08-23T15:07:45.261Z,22.65
2022-08-23T15:13:20.002Z,22.65
2022-08-23T15:15:52.997Z,22.67
2022-08-23T15:18:20.893Z,22.65
2022-08-23T15:20:52.298Z,22.63
2022-08-23T15:23:21.164Z,22.62
2022-08-23T15:25:49.968Z,22.60
2022-08-23T15:28:22.044Z,22.60
2022-08-23T15:30:51.522Z,22.53
2022-08-23T15:33:24.720Z,22.46
2022-08-23T15:35:55.961Z,22.37
2022-08-23T15:38:25.917Z,22.27
2022-08-23T15:40:56.931Z,22.18
2022-08-23T15:43:25.788Z,22.06
2022-08-23T15:46:10.326Z,21.98
2022-08-23T15:48:54.774Z,21.93
2022-08-23T15:51:23.868Z,21.93
2022-08-23T15:53:52.163Z,21.94
2022-08-23T15:56:28.054Z,21.94
2022-08-23T15:58:56.267Z,21.93
2022-08-23T16:01:25.638Z,21.96
2022-08-23T16:03:53.839Z,21.95
2022-08-23T16:06:21.987Z,21.96
2022-08-23T16:08:52.826Z,21.95
2022-08-23T16:11:21.227Z,21.95
2022-08-23T16:13:49.777Z,21.94
2022-08-23T16:16:31.011Z,21.89
2022-08-23T16:19:00.256Z,21.82
2022-08-23T16:21:30.210Z,21.79
2022-08-23T16:23:58.920Z,21.78
2022-08-23T16:26:35.289Z,21.75
2022-08-23T16:29:08.590Z,21.75
2022-08-23T16:31:39.207Z,21.72
2022-08-23T16:34:12.533Z,21.71
2022-08-23T16:36:44.970Z,21.69
2022-08-23T16:39:15.500Z,21.67
2022-08-23T16:41:43.577Z,21.63
2022-08-23T16:44:11.089Z,21.63
2022-08-23T16:46:42.839Z,21.60
2022-08-23T16:49:13.644Z,21.55
2022-08-23T16:51:42.898Z,21.45
2022-08-23T16:54:11.090Z,21.41
2022-08-23T16:56:40.676Z,21.37
2022-08-23T16:59:10.331Z,21.36
2022-08-23T17:02:10.655Z,21.30
2022-08-23T17:04:39.114Z,21.32
2022-08-23T17:07:07.490Z,21.33
2022-08-23T17:09:34.968Z,21.35
2022-08-23T17:12:03.943Z,21.33
2022-08-23T17:14:31.481Z,21.32
2022-08-23T17:17:00.106Z,21.35
2022-08-23T17:19:27.907Z,21.33
2022-08-23T17:21:59.298Z,21.32
2022-08-23T17:24:26.855Z,21.34
2022-08-23T17:26:54.763Z,21.32
2022-08-23T17:29:22.381Z,21.29
2022-08-23T17:31:50.144Z,21.27
2022-08-23T17:34:17.931Z,21.28
2022-08-23T17:36:50.878Z,21.30
2022-08-23T17:39:24.783Z,21.30
2022-08-23T17:41:52.340Z,21.32
2022-08-23T17:44:20.511Z,21.35
2022-08-23T17:46:49.214Z,21.33
2022-08-23T17:49:18.246Z,21.34
2022-08-23T17:51:46.445Z,21.34
2022-08-23T17:54:16.130Z,21.30
2022-08-23T17:56:48.497Z,21.31
2022-08-23T17:59:21.946Z,21.29
2022-08-23T18:01:49.573Z,21.29
2022-08-23T18:04:17.223Z,21.33
2022-08-23T18:06:45.832Z,21.30
2022-08-23T18:09:13.880Z,21.27
2022-08-23T18:11:41.997Z,21.23
2022-08-23T18:14:10.783Z,21.25
2022-08-23T18:16:38.843Z,21.24
2022-08-23T18:19:10.816Z,21.24
2022-08-23T18:21:42.750Z,21.26
2022-08-23T18:24:10.937Z,21.18
2022-08-23T18:26:57.858Z,21.13
2022-08-23T18:29:26.103Z,21.06
2022-08-23T18:31:54.564Z,21.08
2022-08-23T18:34:22.264Z,21.08
2022-08-23T18:36:50.115Z,21.07
2022-08-23T18:39:17.847Z,21.10
2022-08-23T18:42:05.377Z,21.09
2022-08-23T18:44:33.317Z,21.08
2022-08-23T18:47:05.041Z,21.06
2022-08-23T18:49:35.678Z,21.05
2022-08-23T18:52:04.225Z,21.03
2022-08-23T18:54:34.141Z,21.02
2022-08-23T18:57:02.450Z,21.04
2022-08-23T18:59:31.021Z,21.06
2022-08-23T19:01:58.704Z,21.06
2022-08-23T19:04:27.544Z,21.00
2022-08-23T19:06:55.421Z,20.95
2022-08-23T19:09:23.019Z,20.92
2022-08-23T19:11:50.692Z,20.93
2022-08-23T19:14:19.421Z,20.93
2022-08-23T19:16:48.480Z,20.91
2022-08-23T19:19:18.866Z,20.95
2022-08-23T19:21:46.983Z,20.97
2022-08-23T19:24:14.827Z,20.97
2022-08-23T19:26:47.344Z,20.99
2022-08-23T19:29:18.449Z,21.03
2022-08-23T19:31:48.179Z,21.08
2022-08-23T19:34:19.398Z,21.05
2022-08-23T19:36:54.644Z,21.07
2022-08-23T19:39:29.951Z,21.04
2022-08-23T19:41:58.062Z,21.02
2022-08-23T19:44:26.639Z,20.93
2022-08-23T19:46:56.078Z,20.80
2022-08-23T19:49:24.518Z,20.80
2022-08-23T19:51:52.747Z,20.82
2022-08-23T19:54:20.602Z,20.78
2022-08-23T19:56:59.491Z,20.76
2022-08-23T19:59:35.018Z,20.67
2022-08-23T20:02:03.572Z,20.66
2022-08-23T20:04:33.335Z,20.63
2022-08-23T20:07:03.307Z,20.62
2022-08-23T20:09:34.441Z,20.61
2022-08-23T20:12:03.334Z,20.59
2022-08-23T20:14:33.296Z,20.59
2022-08-23T20:17:03.468Z,20.63
2022-08-23T20:19:31.588Z,20.60
2022-08-23T20:22:17.877Z,20.58
2022-08-23T20:24:51.947Z,20.52
2022-08-23T20:27:25.401Z,20.44
2022-08-23T20:30:01.405Z,20.40
2022-08-23T20:32:32.000Z,20.32
2022-08-23T20:35:03.050Z,20.30
2022-08-23T20:37:31.715Z,20.29
2022-08-23T20:40:00.376Z,20.24
2022-08-23T20:42:31.546Z,20.20
2022-08-23T20:45:00.317Z,20.18
2022-08-23T20:47:28.899Z,20.20
2022-08-23T20:49:56.693Z,20.13
2022-08-23T20:52:25.174Z,20.10
2022-08-23T20:54:53.526Z,20.10
2022-08-23T20:57:21.557Z,20.13
2022-08-23T20:59:49.388Z,20.15
2022-08-23T21:02:17.015Z,20.08
2022-08-23T21:04:44.834Z,20.09
2022-08-23T21:07:12.450Z,20.11
2022-08-23T21:09:43.608Z,20.09
2022-08-23T21:12:16.766Z,20.08
2022-08-23T21:14:47.827Z,20.08
2022-08-23T21:17:19.859Z,20.13
2022-08-23T21:19:52.506Z,20.15
2022-08-23T21:22:32.199Z,20.13
2022-08-23T21:25:04.365Z,20.13
2022-08-23T21:27:38.285Z,20.12
2022-08-23T21:30:11.229Z,20.07
2022-08-23T21:32:43.487Z,20.05
2022-08-23T21:35:14.388Z,20.07
2022-08-23T21:37:51.264Z,20.11
2022-08-23T21:40:25.065Z,20.12
2022-08-23T21:42:56.637Z,20.24
2022-08-23T21:45:28.634Z,20.21
2022-08-23T21:47:59.581Z,20.22
2022-08-23T21:50:34.502Z,20.18
2022-08-23T21:53:05.503Z,20.24
2022-08-23T21:55:36.883Z,20.30
2022-08-23T21:58:10.048Z,20.35
2022-08-23T22:00:43.105Z,20.32
2022-08-23T22:03:16.109Z,20.38
2022-08-23T22:05:49.843Z,20.34
2022-08-23T22:08:22.147Z,20.30
2022-08-23T22:10:58.343Z,20.32
2022-08-23T22:13:31.125Z,20.34
2022-08-23T22:16:02.035Z,20.32
2022-08-23T22:18:36.062Z,20.34
2022-08-23T22:21:08.205Z,20.40
2022-08-23T22:23:41.975Z,20.41
2022-08-23T22:26:14.184Z,20.44
2022-08-23T22:28:44.868Z,20.47
2022-08-23T22:31:15.310Z,20.44
2022-08-23T22:33:43.626Z,20.39
2022-08-23T22:36:16.614Z,20.34
2022-08-23T22:38:45.665Z,20.32
2022-08-23T22:41:25.777Z,20.34
2022-08-23T22:43:59.385Z,20.34
2022-08-23T22:46:30.266Z,20.37
2022-08-23T22:48:57.901Z,20.36
2022-08-23T22:51:32.801Z,20.34
2022-08-23T22:54:05.323Z,20.26
2022-08-23T22:56:48.106Z,20.27
2022-08-23T22:59:18.486Z,20.27
2022-08-23T23:01:50.700Z,20.26
2022-08-23T23:04:22.405Z,20.31
2022-08-23T23:06:51.168Z,20.31
2022-08-23T23:09:18.682Z,20.36
2022-08-23T23:11:46.854Z,20.41
2022-08-23T23:14:16.447Z,20.43
2022-08-23T23:16:45.540Z,20.34
2022-08-23T23:19:32.081Z,20.30
2022-08-23T23:22:00.062Z,20.35
2022-08-23T23:24:32.045Z,20.31
2022-08-23T23:27:00.951Z,20.27
2022-08-23T23:29:30.748Z,20.28
2022-08-23T23:31:59.042Z,20.33
2022-08-23T23:34:28.006Z,20.37
2022-08-23T23:36:57.815Z,20.39
2022-08-23T23:39:27.354Z,20.43
2022-08-23T23:41:55.610Z,20.35
2022-08-23T23:44:30.910Z,20.29
2022-08-23T23:47:01.538Z,20.21
2022-08-23T23:49:32.034Z,20.20
2022-08-23T23:52:05.668Z,20.16
2022-08-23T23:54:35.702Z,20.17
2022-08-23T23:57:05.708Z,20.16
2022-08-23T23:59:34.198Z,20.17
